Terminal Aerodrome Forecast
Issued by NWS Cleveland, OH

Home | Current Version | Previous Version | Text Only | Print | Product List | Glossary Off
Versions: 1 2 3 4 5 6 7 8 9 10 11 12 13 14 15 16 17 18 19 20 21 22

866
FTUS41 KCLE 212332
TAFYNG
TAF
KYNG 212332Z 2200/2224 10005KT P6SM OVC150
      TEMPO 2202/2205 1SM +TSRA OVC012CB
     FM220500 00000KT 6SM -TSRA BR OVC035CB
     FM220700 00000KT 6SM -SHRA OVC035
      TEMPO 2207/2211 4SM -TSRA BR OVC040CB
     FM221100 17005KT P6SM OVC090
     FM221600 24009KT P6SM BKN040
     FM222300 27009KT P6SM BKN035=

USA.gov is the U.S. government's official web portal to all federal, state and local government web resources and services.